Time;durP1;ratioP1;P1;durP2;ratioP2;P2;SDS_P1;SDS_P2;PMS_P1;PMS_P2;Temp;Humidity;BMP_temperature;BMP_pressure;BME280_temperature;BME280_humidity;BME280_pressure;Samples;Min_cycle;Max_cycle;Signal;HPM_P1;HPM_P2
2022/12/03 00:00:52;;;;;;;24.13;9.70;;;;;;;-142.75;100.00;79275.88;4961435;28;20327;-67
2022/12/03 00:03:18;;;;;;;25.30;9.13;;;;;;;-142.75;100.00;79281.81;4952944;28;20030;-67
2022/12/03 00:05:43;;;;;;;30.27;10.60;;;;;;;-142.75;100.00;79268.00;4965110;28;20543;-68
2022/12/03 00:08:09;;;;;;;22.63;8.77;;;;;;;-142.75;100.00;79269.97;4960871;28;20433;-66
2022/12/03 00:10:34;;;;;;;25.75;9.82;;;;;;;-142.75;100.00;79262.09;4962981;28;20421;-66
2022/12/03 00:13:00;;;;;;;27.83;11.57;;;;;;;-142.75;100.00;79291.66;4964332;28;20867;-68
2022/12/03 00:15:25;;;;;;;25.50;9.40;;;;;;;-142.75;100.00;79275.88;4965626;28;20194;-67
2022/12/03 00:17:51;;;;;;;28.17;9.57;;;;;;;-142.75;100.00;79258.16;4964662;28;20103;-68
2022/12/03 00:20:21;;;;;;;20.73;9.45;;;;;;;-142.75;100.00;79273.91;4962649;28;20446;-67
2022/12/03 00:22:48;;;;;;;23.43;9.77;;;;;;;-142.75;100.00;79266.03;4964174;28;20045;-68
2022/12/03 00:25:14;;;;;;;23.65;10.82;;;;;;;-142.75;100.00;79268.00;4964718;28;20194;-67
2022/12/03 00:27:40;;;;;;;25.25;10.98;;;;;;;-142.75;100.00;79277.88;4963983;28;20040;-66
2022/12/03 00:30:07;;;;;;;25.35;10.93;;;;;;;-142.75;100.00;79260.13;4964027;28;20318;-67
2022/12/03 00:32:35;;;;;;;24.27;9.97;;;;;;;-142.75;100.00;79260.13;4964604;28;20029;-65
2022/12/03 00:35:00;;;;;;;23.67;10.30;;;;;;;-142.75;100.00;79279.84;4961912;28;20025;-66
2022/12/03 00:37:26;;;;;;;23.20;9.82;;;;;;;-142.75;100.00;79271.94;4964318;28;20434;-67
2022/12/03 00:39:51;;;;;;;30.10;10.65;;;;;;;-142.75;100.00;79283.78;4963766;28;20331;-67
2022/12/03 00:42:17;;;;;;;31.05;11.55;;;;;;;-142.75;100.00;79283.78;4964348;28;20409;-67
2022/12/03 00:44:42;;;;;;;26.58;10.57;;;;;;;-142.75;100.00;79285.75;4964128;28;20342;-67
2022/12/03 00:47:08;;;;;;;22.15;9.55;;;;;;;-142.75;100.00;79291.66;4963864;28;20389;-67
2022/12/03 00:49:34;;;;;;;26.40;11.23;;;;;;;-142.75;100.00;79279.84;5000938;22;20049;-68
2022/12/03 00:52:01;;;;;;;28.33;11.40;;;;;;;-142.75;100.00;79268.00;4971341;28;20187;-67
2022/12/03 00:54:27;;;;;;;25.37;11.30;;;;;;;-142.75;100.00;79283.78;4971791;28;20542;-66
2022/12/03 00:56:52;;;;;;;28.85;11.05;;;;;;;-142.75;100.00;79283.78;4972935;28;20047;-66
2022/12/03 00:59:18;;;;;;;24.98;10.55;;;;;;;-142.75;100.00;79271.94;4972264;28;20087;-66
2022/12/03 01:01:43;;;;;;;26.98;11.32;;;;;;;-142.75;100.00;79268.00;4973426;28;20136;-66
2022/12/03 01:04:09;;;;;;;26.38;12.43;;;;;;;-142.75;100.00;79264.06;4973547;28;20339;-66
2022/12/03 01:06:34;;;;;;;26.98;10.20;;;;;;;-142.75;100.00;79271.94;4972184;28;20425;-66
2022/12/03 01:09:00;;;;;;;33.17;12.20;;;;;;;-142.75;100.00;79279.84;4971509;28;20056;-66
2022/12/03 01:11:37;;;;;;;30.20;10.85;;;;;;;-142.75;100.00;79279.84;4972199;28;20337;-66
2022/12/03 01:14:18;;;;;;;27.40;12.20;;;;;;;-142.75;100.00;79248.31;4972868;28;20087;-66
2022/12/03 01:16:44;;;;;;;24.13;10.57;;;;;;;-142.75;100.00;79264.06;4976978;28;20096;-66
2022/12/03 01:19:14;;;;;;;25.17;10.57;;;;;;;-142.75;100.00;79268.00;4968329;28;20033;-66
2022/12/03 01:21:41;;;;;;;30.27;11.60;;;;;;;-142.75;100.00;79268.00;4970840;28;20032;-66
2022/12/03 01:24:06;;;;;;;28.87;10.77;;;;;;;-142.75;100.00;79258.16;4978995;28;20600;-66
2022/12/03 01:26:32;;;;;;;27.02;11.80;;;;;;;-142.75;100.00;79268.00;4967298;28;20116;-66
2022/12/03 01:28:57;;;;;;;24.67;11.07;;;;;;;-142.75;100.00;79266.03;4971057;28;20021;-66
2022/12/03 01:34:07;;;;;;;29.53;12.77;;;;;;;-142.75;100.00;79264.06;4972884;28;20055;-66
2022/12/03 01:36:33;;;;;;;27.58;10.90;;;;;;;-142.75;100.00;79264.06;4965482;28;20202;-66
2022/12/03 01:38:59;;;;;;;25.55;10.70;;;;;;;-142.75;100.00;79269.97;4971636;28;20555;-66
2022/12/03 01:41:25;;;;;;;31.90;12.60;;;;;;;-142.75;100.00;79264.06;4972770;28;20044;-66
2022/12/03 01:43:52;;;;;;;30.42;12.63;;;;;;;-142.75;100.00;79260.13;4968842;28;20055;-66
2022/12/03 01:46:21;;;;;;;35.30;12.23;;;;;;;-142.75;100.00;79258.16;4965947;28;20026;-66
2022/12/03 01:48:48;;;;;;;28.87;12.67;;;;;;;-142.75;100.00;79266.03;4974058;28;20033;-67
2022/12/03 01:51:14;;;;;;;29.03;12.40;;;;;;;-142.75;100.00;79256.19;4973818;28;20663;-66
2022/12/03 01:53:40;;;;;;;;;;;;;;;-142.75;100.00;79256.19;4970682;28;20021;-66
2022/12/03 01:56:06;;;;;;;26.80;12.30;;;;;;;-142.75;100.00;79268.00;4976356;28;19913;-66
2022/12/03 01:58:31;;;;;;;29.58;11.73;;;;;;;-142.75;100.00;79262.09;4978111;28;20331;-66
2022/12/03 02:01:00;;;;;;;27.10;10.90;;;;;;;-142.75;100.00;79262.09;4970490;28;20323;-66
2022/12/03 02:03:26;;;;;;;32.73;13.17;;;;;;;-142.75;100.00;79262.09;4968524;28;20048;-66
2022/12/03 02:05:52;;;;;;;30.50;12.82;;;;;;;-142.75;100.00;79240.44;4966973;28;20554;-66
2022/12/03 02:08:38;;;;;;;31.85;11.98;;;;;;;-142.75;100.00;79246.34;4969281;28;20118;-65
2022/12/03 02:11:10;;;;;;;28.83;11.27;;;;;;;-142.75;100.00;79244.38;4965894;28;20021;-66
2022/12/03 02:13:36;;;;;;;27.33;11.60;;;;;;;-142.75;100.00;79252.25;4972053;28;20151;-65
2022/12/03 02:16:02;;;;;;;;;;;;;;;-142.75;100.00;79256.19;4966609;28;20029;-66
2022/12/03 02:18:27;;;;;;;20.53;10.00;;;;;;;-142.75;100.00;79252.25;4968684;28;19991;-65
2022/12/03 02:21:14;;;;;;;28.40;11.77;;;;;;;-142.75;100.00;79262.09;4976411;28;20346;-65
2022/12/03 02:24:04;;;;;;;26.40;12.45;;;;;;;-142.75;100.00;79252.25;4969092;28;20152;-66
2022/12/03 02:26:29;;;;;;;28.37;11.87;;;;;;;-142.75;100.00;79254.22;4967877;28;20021;-66
2022/12/03 02:28:55;;;;;;;25.90;11.30;;;;;;;-142.75;100.00;79244.38;4971731;28;20446;-66
2022/12/03 02:31:21;;;;;;;23.08;10.93;;;;;;;-142.75;100.00;79246.34;4968506;28;20128;-66
2022/12/03 02:33:47;;;;;;;27.02;10.70;;;;;;;-142.75;100.00;79246.34;4977435;28;20059;-65
2022/12/03 02:36:12;;;;;;;29.10;13.13;;;;;;;-142.75;100.00;79228.63;4969134;28;20337;-68
2022/12/03 02:38:40;;;;;;;28.60;10.98;;;;;;;-142.75;100.00;79246.34;4972663;28;20202;-68
2022/12/03 02:41:10;;;;;;;29.37;12.13;;;;;;;-142.75;100.00;79232.56;4965823;28;20136;-68
2022/12/03 02:43:36;;;;;;;28.00;11.43;;;;;;;-142.75;100.00;79228.63;4979827;28;20032;-67
2022/12/03 02:46:03;;;;;;;31.08;12.00;;;;;;;-142.75;100.00;79218.75;4969114;28;20398;-68
2022/12/03 02:48:34;;;;;;;29.07;11.27;;;;;;;-142.75;100.00;79236.50;4973101;28;20025;-67
2022/12/03 02:51:04;;;;;;;31.57;11.33;;;;;;;-142.75;100.00;79232.56;4967454;28;20061;-67
2022/12/03 02:53:43;;;;;;;29.70;12.00;;;;;;;-142.75;100.00;79222.72;4969391;28;20037;-67
2022/12/03 02:56:12;;;;;;;31.70;11.00;;;;;;;-142.75;100.00;79238.47;4972989;28;20650;-68
2022/12/03 02:58:40;;;;;;;27.67;12.97;;;;;;;-142.75;100.00;79240.44;4974177;28;20040;-68
2022/12/03 03:01:08;;;;;;;32.07;12.43;;;;;;;-142.75;100.00;79234.53;4970136;28;20760;-68
2022/12/03 03:03:36;;;;;;;29.40;12.53;;;;;;;-142.75;100.00;79216.78;4970983;28;20140;-68
2022/12/03 03:06:04;;;;;;;34.03;13.30;;;;;;;-142.75;100.00;79218.75;4972977;28;20029;-68
2022/12/03 03:08:30;;;;;;;32.37;12.37;;;;;;;-142.75;100.00;79224.69;4974948;28;20175;-67
2022/12/03 03:10:59;;;;;;;30.38;12.48;;;;;;;-142.75;100.00;79224.69;4964351;28;20262;-67
2022/12/03 03:13:24;;;;;;;30.53;12.17;;;;;;;-142.75;100.00;79210.88;4967361;28;20033;-67
2022/12/03 03:15:50;;;;;;;32.10;10.93;;;;;;;-142.75;100.00;79218.75;4963046;28;20481;-64
2022/12/03 03:18:16;;;;;;;31.10;12.43;;;;;;;-142.75;100.00;79204.97;4967379;28;20315;-66
2022/12/03 03:20:42;;;;;;;;;;;;;;;-142.75;100.00;79197.09;4974051;28;20083;-66
2022/12/03 03:23:10;;;;;;;28.87;12.23;;;;;;;-142.75;100.00;79199.06;4969337;28;20241;-66
2022/12/03 03:25:37;;;;;;;32.70;12.63;;;;;;;-142.75;100.00;79197.09;4964869;28;20546;-66
2022/12/03 03:28:04;;;;;;;33.37;12.10;;;;;;;-142.75;100.00;79214.81;4969823;28;20048;-66
2022/12/03 03:30:30;;;;;;;31.27;12.00;;;;;;;-142.75;100.00;79222.72;4970169;28;20120;-66
2022/12/03 03:32:56;;;;;;;27.25;10.82;;;;;;;-142.75;100.00;79201.03;4970141;28;20190;-66
2022/12/03 03:35:23;;;;;;;27.05;9.48;;;;;;;-142.75;100.00;79195.13;4967521;28;20054;-66
2022/12/03 03:37:50;;;;;;;31.10;12.80;;;;;;;-142.75;100.00;79193.16;4972011;28;20140;-66
2022/12/03 03:40:16;;;;;;;33.50;12.80;;;;;;;-142.75;100.00;79189.22;4965628;28;20140;-66
2022/12/03 03:42:41;;;;;;;;;;;;;;;-142.75;100.00;79197.09;4977230;28;20082;-66
2022/12/03 03:45:08;;;;;;;30.83;11.67;;;;;;;-142.75;100.00;79189.22;4970753;28;20276;-66
2022/12/03 03:47:34;;;;;;;30.87;12.83;;;;;;;-142.75;100.00;79173.47;4976167;28;20101;-66
2022/12/03 03:50:00;;;;;;;29.25;12.20;;;;;;;-142.75;100.00;79173.47;4970201;28;20020;-66
2022/12/03 03:52:26;;;;;;;35.00;13.45;;;;;;;-142.75;100.00;79169.53;4966757;28;20017;-66
2022/12/03 03:54:51;;;;;;;33.25;12.55;;;;;;;-142.75;100.00;79163.63;4977927;28;20335;-66
2022/12/03 03:57:17;;;;;;;30.05;13.10;;;;;;;-142.75;100.00;79151.78;4972208;28;20334;-66
2022/12/03 03:59:42;;;;;;;33.67;12.82;;;;;;;-142.75;100.00;79161.66;4972726;28;20319;-66
2022/12/03 04:02:19;;;;;;;32.17;12.68;;;;;;;-142.75;100.00;79161.66;4978864;28;20435;-71
2022/12/03 04:04:46;;;;;;;32.53;13.57;;;;;;;-142.75;100.00;79149.81;4969691;28;20025;-65
2022/12/03 04:07:12;;;;;;;30.23;11.50;;;;;;;-142.75;100.00;79161.66;4975869;28;20029;-66
2022/12/03 04:09:38;;;;;;;;;;;;;;;-142.75;100.00;79149.81;4976226;28;20128;-66
2022/12/03 04:14:47;;;;;;;32.37;12.73;;;;;;;-142.75;100.00;79175.44;4972078;28;20397;-66
2022/12/03 04:17:13;;;;;;;32.95;13.45;;;;;;;-142.75;100.00;79157.72;4972262;28;20581;-66
2022/12/03 04:19:38;;;;;;;31.98;12.55;;;;;;;-142.75;100.00;79132.09;4966191;28;20342;-65
2022/12/03 04:24:48;;;;;;;27.07;12.00;;;;;;;-142.75;100.00;79130.13;4971893;28;20219;-66
2022/12/03 04:29:57;;;;;;;25.00;12.27;;;;;;;-142.75;100.00;79122.25;4969577;28;20075;-66
2022/12/03 04:37:52;;;;;;;28.77;12.10;;;;;;;-142.75;100.00;79108.47;4970700;28;20130;-66
2022/12/03 04:43:02;;;;;;;32.90;14.23;;;;;;;-142.75;100.00;79124.22;4981461;28;20889;-66
2022/12/03 04:45:27;;;;;;;32.80;12.45;;;;;;;-142.75;100.00;79104.53;4977713;28;20136;-66
2022/12/03 04:47:53;;;;;;;33.95;14.70;;;;;;;-142.75;100.00;79122.25;4973692;28;20357;-66
2022/12/03 04:50:18;;;;;;;34.97;13.70;;;;;;;-142.75;100.00;79118.31;4977991;28;20373;-66
2022/12/03 04:52:44;;;;;;;30.20;12.20;;;;;;;-142.75;100.00;79112.41;4976558;28;20575;-66
2022/12/03 04:55:09;;;;;;;30.23;12.73;;;;;;;-142.75;100.00;79112.41;4968559;28;20364;-67
2022/12/03 04:57:35;;;;;;;34.35;13.27;;;;;;;-142.75;100.00;79112.41;4975508;28;20024;-66
2022/12/03 05:00:01;;;;;;;31.85;13.35;;;;;;;-142.75;100.00;79102.56;4983521;28;20314;-65
2022/12/03 05:02:26;;;;;;;32.25;13.50;;;;;;;-142.75;100.00;79092.69;4980573;28;20047;-66
2022/12/03 05:04:52;;;;;;;29.50;13.48;;;;;;;-142.75;100.00;79118.31;4973591;28;20379;-66
2022/12/03 05:07:17;;;;;;;26.92;11.95;;;;;;;-142.75;100.00;79088.75;4984168;28;20420;-66
2022/12/03 05:09:43;;;;;;;32.25;13.65;;;;;;;-142.75;100.00;79080.88;4979748;28;20424;-66
2022/12/03 05:12:08;;;;;;;33.05;11.85;;;;;;;-142.75;100.00;79082.84;4976918;28;20462;-65
2022/12/03 05:14:34;;;;;;;28.23;11.90;;;;;;;-142.75;100.00;79078.91;4981117;28;20061;-66
2022/12/03 05:16:59;;;;;;;30.27;13.43;;;;;;;-142.75;100.00;79076.94;4980533;28;20308;-66
2022/12/03 05:20:40;;;;;;;29.60;12.57;;;;;;;-142.75;100.00;79074.97;4970309;28;20022;-66
2022/12/03 05:22:10;;;;;;;30.63;11.40;;;;;;;-142.75;100.00;79092.69;4965948;28;20281;-66
2022/12/03 05:24:36;;;;;;;28.00;12.15;;;;;;;-142.75;100.00;79092.69;4971812;28;20767;-66
2022/12/03 05:27:01;;;;;;;28.38;12.02;;;;;;;-142.75;100.00;79084.81;4983493;28;20322;-66
2022/12/03 05:29:27;;;;;;;31.20;12.18;;;;;;;-142.75;100.00;79102.56;4968363;28;20338;-66
2022/12/03 05:31:52;;;;;;;31.58;12.00;;;;;;;-142.75;100.00;79074.97;4979520;28;20311;-66
2022/12/03 05:34:18;;;;;;;31.92;13.93;;;;;;;-142.75;100.00;79084.81;4974974;28;20357;-65
2022/12/03 05:36:43;;;;;;;26.20;12.15;;;;;;;-142.75;100.00;79074.97;4973268;28;20576;-66
2022/12/03 05:39:09;;;;;;;30.20;13.30;;;;;;;-142.75;100.00;79051.34;4969908;28;20340;-66
2022/12/03 05:44:18;;;;;;;34.27;14.10;;;;;;;-142.75;100.00;79078.91;4971113;28;20110;-66
2022/12/03 05:46:44;;;;;;;31.20;13.20;;;;;;;-142.75;100.00;79084.81;4965786;28;20451;-66
2022/12/03 05:49:09;;;;;;;31.83;12.65;;;;;;;-142.75;100.00;79082.84;4967112;28;20409;-66
2022/12/03 05:51:35;;;;;;;31.40;13.38;;;;;;;-142.75;100.00;79074.97;4967613;28;20349;-66
2022/12/03 05:54:00;;;;;;;29.52;12.55;;;;;;;-142.75;100.00;79074.97;4981742;28;20465;-66
2022/12/03 05:56:26;;;;;;;33.33;13.32;;;;;;;-142.75;100.00;79063.16;4983442;28;20329;-66
2022/12/03 05:58:51;;;;;;;34.33;13.60;;;;;;;-142.75;100.00;79041.50;4983609;28;20104;-66
2022/12/03 06:01:17;;;;;;;31.63;13.23;;;;;;;-142.75;100.00;79031.66;4976359;28;20392;-65
2022/12/03 06:03:42;;;;;;;30.42;12.77;;;;;;;-142.75;100.00;79051.34;4964599;28;20382;-66
2022/12/03 06:06:08;;;;;;;30.30;12.93;;;;;;;-142.75;100.00;79041.50;4970998;28;20358;-66
2022/12/03 06:08:33;;;;;;;27.23;11.88;;;;;;;-142.75;100.00;79023.75;4970676;28;20021;-66
2022/12/03 06:10:59;;;;;;;30.13;12.95;;;;;;;-142.75;100.00;79055.28;4944062;28;20026;-66
2022/12/03 06:13:24;;;;;;;34.95;13.98;;;;;;;-142.75;100.00;79059.22;4964457;28;20341;-66
2022/12/03 06:15:50;;;;;;;32.75;14.20;;;;;;;-142.75;100.00;79043.47;4981432;28;20353;-66
2022/12/03 06:18:15;;;;;;;32.83;13.98;;;;;;;-142.75;100.00;79041.50;4963944;28;20319;-66
2022/12/03 06:20:41;;;;;;;32.45;12.43;;;;;;;-142.75;100.00;79043.47;4976751;28;20249;-66
2022/12/03 06:23:06;;;;;;;37.45;14.07;;;;;;;-142.75;100.00;79063.16;4981574;28;20417;-66
2022/12/03 06:25:32;;;;;;;29.63;12.45;;;;;;;-142.75;100.00;79055.28;4976054;28;20500;-66
2022/12/03 06:27:57;;;;;;;34.70;13.25;;;;;;;-142.75;100.00;79055.28;4974514;28;20460;-66
2022/12/03 06:30:23;;;;;;;29.40;13.15;;;;;;;-142.75;100.00;79047.41;4975383;28;20183;-66
2022/12/03 06:32:48;;;;;;;33.08;13.82;;;;;;;-142.75;100.00;79021.78;4976249;28;20943;-65
2022/12/03 06:35:14;;;;;;;31.00;14.20;;;;;;;-142.75;100.00;79051.34;4978624;28;20037;-67
2022/12/03 06:37:39;;;;;;;32.63;12.57;;;;;;;-142.75;100.00;79033.63;4982268;28;20483;-66
2022/12/03 06:40:05;;;;;;;33.42;14.60;;;;;;;-142.75;100.00;79043.47;4964746;28;20377;-66
2022/12/03 06:42:31;;;;;;;;;;;;;;;-142.75;100.00;79043.47;4964206;28;20145;-66
2022/12/03 06:44:56;;;;;;;30.87;12.27;;;;;;;-142.75;100.00;79041.50;4976410;28;19913;-66
2022/12/03 06:47:22;;;;;;;28.90;13.02;;;;;;;-142.75;100.00;79043.47;4960340;28;20346;-66
2022/12/03 06:49:47;;;;;;;29.52;12.73;;;;;;;-142.75;100.00;79037.56;5007535;22;20075;-67
2022/12/03 06:52:13;;;;;;;39.78;14.18;;;;;;;-142.75;100.00;79023.75;5002187;28;20317;-67
2022/12/03 06:54:38;;;;;;;28.60;12.65;;;;;;;-142.75;100.00;79019.81;5003354;28;20159;-66
2022/12/03 06:57:04;;;;;;;35.83;14.68;;;;;;;-142.75;100.00;79027.69;4999773;28;20166;-64
2022/12/03 06:59:32;;;;;;;32.58;13.82;;;;;;;-142.75;100.00;79063.16;4992225;28;20420;-64
2022/12/03 07:01:58;;;;;;;30.53;12.73;;;;;;;-142.75;100.00;79047.41;4982525;28;20106;-67
2022/12/03 07:04:23;;;;;;;28.38;12.65;;;;;;;-142.75;100.00;79035.59;4982183;28;20559;-66
2022/12/03 07:06:49;;;;;;;31.48;13.23;;;;;;;-142.75;100.00;79051.34;4983313;28;20065;-67
2022/12/03 07:09:16;;;;;;;36.00;14.48;;;;;;;-142.75;100.00;79055.28;4981759;28;20331;-67
2022/12/03 07:11:41;;;;;;;33.37;13.47;;;;;;;-142.75;100.00;79059.22;4982097;28;20021;-66
2022/12/03 07:14:09;;;;;;;28.63;12.93;;;;;;;-142.75;100.00;79051.34;4983806;28;20329;-67
2022/12/03 07:16:35;;;;;;;37.83;13.97;;;;;;;-142.75;100.00;79047.41;4981976;28;20059;-66
2022/12/03 07:19:02;;;;;;;31.30;13.20;;;;;;;-142.75;100.00;79063.16;4985343;28;20288;-66
2022/12/03 07:21:28;;;;;;;34.70;13.17;;;;;;;-142.75;100.00;79061.19;4985679;28;20033;-66
2022/12/03 07:23:53;;;;;;;29.60;12.77;;;;;;;-142.75;100.00;79061.19;4987329;28;20462;-66
2022/12/03 07:26:18;;;;;;;34.17;13.73;;;;;;;-142.75;100.00;79071.03;4987127;28;20291;-66
2022/12/03 07:28:45;;;;;;;36.10;14.77;;;;;;;-142.75;100.00;79067.09;4985181;28;20202;-67
2022/12/03 07:31:11;;;;;;;28.40;13.03;;;;;;;-142.75;100.00;79073.00;4987715;28;20090;-65
2022/12/03 07:33:36;;;;;;;26.42;12.38;;;;;;;-142.75;100.00;79067.09;4985213;28;20317;-67
2022/12/03 07:36:02;;;;;;;33.65;14.20;;;;;;;-142.75;100.00;79073.00;4985560;28;20338;-66
2022/12/03 07:38:27;;;;;;;32.03;15.63;;;;;;;-142.75;100.00;79078.91;4986283;28;20322;-66
2022/12/03 07:40:52;;;;;;;30.75;14.25;;;;;;;-142.75;100.00;79074.97;4984873;28;20369;-67
2022/12/03 07:43:18;;;;;;;34.55;14.48;;;;;;;-142.75;100.00;79069.06;4983259;28;20481;-66
2022/12/03 07:45:43;;;;;;;30.13;12.93;;;;;;;-142.75;100.00;79055.28;4984978;28;20060;-66
2022/12/03 07:48:09;;;;;;;39.70;16.83;;;;;;;-142.75;100.00;79063.16;4984697;28;20365;-66
2022/12/03 07:50:34;;;;;;;29.65;13.50;;;;;;;-142.75;100.00;79082.84;4985882;28;20025;-65
2022/12/03 07:53:00;;;;;;;30.20;13.75;;;;;;;-142.75;100.00;79082.84;4985850;28;20364;-65
2022/12/03 07:55:25;;;;;;;28.00;13.73;;;;;;;-142.75;100.00;79055.28;4987119;28;20421;-66
2022/12/03 07:57:51;;;;;;;36.65;15.32;;;;;;;-142.75;100.00;79059.22;4987188;28;20314;-66
2022/12/03 08:00:18;;;;;;;34.63;13.40;;;;;;;-142.75;100.00;79074.97;4984786;28;20329;-66
2022/12/03 08:02:44;;;;;;;31.07;14.00;;;;;;;-142.75;100.00;79073.00;4986859;28;20242;-65
2022/12/03 08:05:10;;;;;;;37.25;15.85;;;;;;;-142.75;100.00;79063.16;4985938;28;20423;-65
2022/12/03 08:07:36;;;;;;;33.17;12.80;;;;;;;-142.75;100.00;79076.94;4985069;28;20143;-65
2022/12/03 08:10:03;;;;;;;29.88;13.68;;;;;;;-142.75;100.00;79061.19;4986228;28;20302;-66
2022/12/03 08:12:41;;;;;;;30.80;13.73;;;;;;;-142.75;100.00;79074.97;4983015;28;20079;-65
2022/12/03 08:15:18;;;;;;;26.97;12.37;;;;;;;-142.75;100.00;79074.97;4967744;28;20095;-65
2022/12/03 08:17:44;;;;;;;;;;;;;;;-142.75;100.00;79071.03;4982576;28;20036;-66
2022/12/03 08:20:16;;;;;;;23.35;11.27;;;;;;;-142.75;100.00;79074.97;4985552;28;20425;-65
2022/12/03 08:22:47;;;;;;;25.67;12.03;;;;;;;-142.75;100.00;79082.84;4985177;28;20039;-65
2022/12/03 08:25:25;;;;;;;28.90;11.43;;;;;;;-142.75;100.00;79090.72;4987028;28;20020;-65
2022/12/03 08:27:52;;;;;;;26.87;11.77;;;;;;;-142.75;100.00;79084.81;4988076;28;20021;-67
2022/12/03 08:30:19;;;;;;;26.30;13.00;;;;;;;-142.75;100.00;79076.94;4984048;28;20102;-66
2022/12/03 08:32:45;;;;;;;28.57;12.43;;;;;;;-142.75;100.00;79074.97;4984455;28;20434;-67
2022/12/03 08:35:29;;;;;;;26.50;13.40;;;;;;;-142.75;100.00;79090.72;4984275;28;20025;-66
2022/12/03 08:38:00;;;;;;;27.07;13.37;;;;;;;-142.75;100.00;79100.59;4984489;28;20059;-67
2022/12/03 08:40:34;;;;;;;30.97;12.43;;;;;;;-142.75;100.00;79067.09;4986648;28;20029;-65
2022/12/03 08:43:00;;;;;;;29.67;13.07;;;;;;;-142.75;100.00;79088.75;4985922;28;20033;-65
2022/12/03 08:45:31;;;;;;;34.28;13.65;;;;;;;-142.75;100.00;79086.78;4985160;28;20315;-65
2022/12/03 08:48:00;;;;;;;27.93;12.50;;;;;;;-142.75;100.00;79086.78;4984838;28;20029;-66
2022/12/03 08:50:31;;;;;;;27.00;12.93;;;;;;;-142.75;100.00;79082.84;4984379;28;20053;-66
2022/12/03 08:53:10;;;;;;;29.90;13.80;;;;;;;-142.75;100.00;79071.03;4985733;28;20131;-65
2022/12/03 08:55:37;;;;;;;29.80;13.40;;;;;;;-142.75;100.00;79082.84;4985653;28;20050;-66
2022/12/03 08:58:25;;;;;;;44.47;16.97;;;;;;;-142.75;100.00;79071.03;4985121;28;20028;-66
2022/12/03 09:01:01;;;;;;;33.00;14.03;;;;;;;-142.75;100.00;79067.09;4984127;28;20021;-66
2022/12/03 09:03:29;;;;;;;32.22;14.23;;;;;;;-142.75;100.00;79071.03;4984354;28;20025;-67
2022/12/03 09:05:55;;;;;;;28.67;12.50;;;;;;;-142.75;100.00;79080.88;4982895;28;20029;-65
2022/12/03 09:08:20;;;;;;;30.73;12.63;;;;;;;-142.75;100.00;79076.94;4985458;28;20321;-64
2022/12/03 09:10:46;;;;;;;25.73;11.90;;;;;;;-142.75;100.00;79096.66;4984102;28;20326;-65
2022/12/03 09:13:11;;;;;;;30.65;12.93;;;;;;;-142.75;100.00;79084.81;4986146;28;20322;-65
2022/12/03 09:15:37;;;;;;;30.02;12.13;;;;;;;-142.75;100.00;79078.91;4983989;28;20457;-66
2022/12/03 09:18:02;;;;;;;27.52;11.95;;;;;;;-142.75;100.00;79074.97;4983685;28;20369;-65
2022/12/03 09:20:28;;;;;;;28.88;12.73;;;;;;;-142.75;100.00;79082.84;4983385;28;20416;-65
2022/12/03 09:22:53;;;;;;;32.28;12.77;;;;;;;-142.75;100.00;79084.81;4984460;28;20420;-65
2022/12/03 09:25:19;;;;;;;31.23;12.20;;;;;;;-142.75;100.00;79090.72;4984084;28;20337;-65
2022/12/03 09:27:44;;;;;;;31.25;12.98;;;;;;;-142.75;100.00;79110.44;4985719;28;20326;-65
2022/12/03 09:30:10;;;;;;;32.70;14.02;;;;;;;-142.75;100.00;79082.84;4983526;28;20404;-65
2022/12/03 09:32:36;;;;;;;29.73;13.38;;;;;;;-142.75;100.00;79080.88;4984316;28;20342;-65
2022/12/03 09:35:01;;;;;;;32.60;13.60;;;;;;;-142.75;100.00;79084.81;4984004;28;20388;-65
2022/12/03 09:37:27;;;;;;;34.85;13.57;;;;;;;-142.75;100.00;79102.56;4983764;28;20383;-66
2022/12/03 09:39:52;;;;;;;30.73;12.30;;;;;;;-142.75;100.00;79092.69;4983324;28;20341;-64
2022/12/03 09:42:18;;;;;;;38.10;15.55;;;;;;;-142.75;100.00;79078.91;4983123;28;20358;-66
2022/12/03 09:44:43;;;;;;;35.50;15.00;;;;;;;-142.75;100.00;79084.81;4984854;28;20315;-64
2022/12/03 09:47:09;;;;;;;32.25;14.25;;;;;;;-142.75;100.00;79092.69;4983921;28;20339;-65
2022/12/03 09:49:36;;;;;;;31.90;13.13;;;;;;;-142.75;100.00;79084.81;4982867;28;20453;-65
2022/12/03 09:52:04;;;;;;;30.43;13.67;;;;;;;-142.75;100.00;79073.00;4983118;28;20029;-66
2022/12/03 09:54:31;;;;;;;35.60;14.33;;;;;;;-142.75;100.00;79074.97;4983316;28;20024;-65
2022/12/03 09:56:59;;;;;;;34.33;14.47;;;;;;;-142.75;100.00;79090.72;4983404;28;20032;-65
2022/12/03 09:59:28;;;;;;;32.37;14.43;;;;;;;-142.75;100.00;79065.13;4983560;28;20025;-66
2022/12/03 10:01:54;;;;;;;30.87;13.90;;;;;;;-142.75;100.00;79071.03;4983302;28;20028;-65
2022/12/03 10:04:20;;;;;;;35.60;15.82;;;;;;;-142.75;100.00;79059.22;4984504;28;20337;-66
2022/12/03 10:06:49;;;;;;;37.90;15.25;;;;;;;-142.75;100.00;79059.22;4982636;28;20338;-67
2022/12/03 10:09:28;;;;;;;33.87;14.40;;;;;;;-142.75;100.00;79059.22;4980437;28;20735;-67
2022/12/03 10:11:56;;;;;;;39.33;14.13;;;;;;;-142.75;100.00;79073.00;4981433;28;20752;-64
2022/12/03 10:14:21;;;;;;;38.43;14.97;;;;;;;-142.75;100.00;79084.81;4985363;28;20152;-65
2022/12/03 10:16:47;;;;;;;40.35;16.27;;;;;;;-142.75;100.00;79078.91;4983534;28;20337;-66
2022/12/03 10:19:24;;;;;;;;;;;;;;;-142.75;100.00;79049.38;4985581;28;20024;-65
2022/12/03 10:21:50;;;;;;;31.45;14.00;;;;;;;-142.75;100.00;79074.97;4983715;28;19912;-65
2022/12/03 10:24:15;;;;;;;32.25;13.52;;;;;;;-142.75;100.00;79057.25;4983755;28;20504;-64
2022/12/03 10:26:42;;;;;;;35.50;14.23;;;;;;;-142.75;100.00;79094.69;4984993;28;20049;-65
2022/12/03 10:29:13;;;;;;;39.73;16.50;;;;;;;-142.75;100.00;79086.78;4983389;28;20028;-64
2022/12/03 10:31:39;;;;;;;34.30;16.40;;;;;;;-142.75;100.00;79098.63;4982466;28;20129;-65
2022/12/03 10:34:04;;;;;;;40.00;15.30;;;;;;;-142.75;100.00;79088.75;4982752;28;20423;-65
2022/12/03 10:36:30;;;;;;;38.83;15.07;;;;;;;-142.75;100.00;79102.56;4982375;28;20174;-65
2022/12/03 10:39:11;;;;;;;39.80;15.38;;;;;;;-142.75;100.00;79104.53;4983886;28;20148;-65
2022/12/03 10:41:38;;;;;;;44.20;16.27;;;;;;;-142.75;100.00;79094.69;4983004;28;20025;-64
2022/12/03 10:44:19;;;;;;;52.87;17.30;;;;;;;-142.75;100.00;79088.75;4982055;28;20029;-66
2022/12/03 10:46:46;;;;;;;38.30;15.53;;;;;;;-142.75;100.00;79082.84;4983436;28;20032;-65
2022/12/03 10:49:19;;;;;;;42.30;16.70;;;;;;;-142.75;100.00;79078.91;4980573;28;20033;-65
2022/12/03 10:51:47;;;;;;;39.93;16.43;;;;;;;-142.75;100.00;79076.94;4981812;28;20029;-67
2022/12/03 10:54:21;;;;;;;41.87;16.03;;;;;;;-142.75;100.00;79088.75;4974951;28;20622;-64
2022/12/03 10:56:48;;;;;;;42.70;16.97;;;;;;;-142.75;100.00;79078.91;4984353;28;20051;-64
2022/12/03 10:59:20;;;;;;;54.30;17.20;;;;;;;-142.75;100.00;79076.94;4983050;28;20029;-65
2022/12/03 11:01:46;;;;;;;50.37;17.23;;;;;;;-142.75;100.00;79078.91;4982886;28;20577;-64
2022/12/03 11:04:25;;;;;;;46.08;16.70;;;;;;;-142.75;100.00;79090.72;4982706;28;20028;-69
2022/12/03 11:06:51;;;;;;;44.07;16.17;;;;;;;-142.75;100.00;79073.00;4976596;28;20055;-67
2022/12/03 11:09:23;;;;;;;40.75;17.00;;;;;;;-142.75;100.00;79065.13;4982154;28;20326;-69
2022/12/03 11:11:49;;;;;;;92.33;31.10;;;;;;;-142.75;100.00;79065.13;4982528;28;20056;-65
2022/12/03 11:14:50;;;;;;;49.90;18.95;;;;;;;-142.75;100.00;79057.25;4983283;28;20021;-65
2022/12/03 11:17:40;;;;;;;48.43;17.43;;;;;;;-142.75;100.00;79043.47;4970295;28;20021;-66
2022/12/03 11:20:10;;;;;;;43.73;17.03;;;;;;;-142.75;100.00;79049.38;4976308;28;20106;-66